createdAt,value
2023-05-09T00:01:13.965Z,87.75
2023-05-09T00:03:42.314Z,88.73
2023-05-09T00:06:09.308Z,88.45
2023-05-09T00:08:36.080Z,89.66
2023-05-09T00:11:02.507Z,89.40
2023-05-09T00:13:28.921Z,89.32
2023-05-09T00:15:57.238Z,89.67
2023-05-09T00:18:23.805Z,89.85
2023-05-09T00:20:50.756Z,89.60
2023-05-09T00:23:17.070Z,89.54
2023-05-09T00:25:43.705Z,89.82
2023-05-09T00:28:10.170Z,89.99
2023-05-09T00:30:36.705Z,89.41
2023-05-09T00:33:03.099Z,89.29
2023-05-09T00:35:29.619Z,89.26
2023-05-09T00:37:55.936Z,89.36
2023-05-09T00:40:22.418Z,88.33
2023-05-09T00:42:48.786Z,88.94
2023-05-09T00:45:15.435Z,88.75
2023-05-09T00:47:42.134Z,89.13
2023-05-09T00:50:09.185Z,89.34
2023-05-09T00:52:36.328Z,88.65
2023-05-09T00:55:02.868Z,87.92
2023-05-09T00:57:29.198Z,87.14
2023-05-09T00:59:56.006Z,86.97
2023-05-09T01:02:22.441Z,87.41
2023-05-09T01:04:48.849Z,87.08
2023-05-09T01:07:35.370Z,86.49
2023-05-09T01:10:11.704Z,87.34
2023-05-09T01:13:00.160Z,86.95
2023-05-09T01:15:51.083Z,87.19
2023-05-09T01:18:26.148Z,85.97
2023-05-09T01:21:01.734Z,85.59
2023-05-09T01:23:55.688Z,85.90
2023-05-09T01:26:24.939Z,85.74
2023-05-09T01:29:36.718Z,86.54
2023-05-09T01:32:08.119Z,85.86
2023-05-09T01:34:35.567Z,84.27
2023-05-09T01:37:04.932Z,83.98
2023-05-09T01:39:33.792Z,83.05
2023-05-09T01:42:02.586Z,83.33
2023-05-09T01:44:37.870Z,84.28
2023-05-09T01:47:04.874Z,82.52
2023-05-09T01:49:33.458Z,83.20
2023-05-09T01:52:03.684Z,83.57
2023-05-09T01:54:31.206Z,83.34
2023-05-09T01:56:59.126Z,82.37
2023-05-09T01:59:27.116Z,82.85
2023-05-09T02:01:55.166Z,83.41
2023-05-09T02:04:22.175Z,82.86
2023-05-09T02:06:52.949Z,82.97
2023-05-09T02:09:20.359Z,82.97
2023-05-09T02:11:46.967Z,83.05
2023-05-09T02:14:14.028Z,82.32
2023-05-09T02:16:40.787Z,81.40
2023-05-09T02:19:07.326Z,82.11
2023-05-09T02:21:33.927Z,82.20
2023-05-09T02:24:00.326Z,81.66
2023-05-09T02:26:28.330Z,81.63
2023-05-09T02:28:56.085Z,81.65
2023-05-09T02:31:25.036Z,81.70
2023-05-09T02:33:54.067Z,81.99
2023-05-09T02:36:22.128Z,81.82
2023-05-09T02:38:48.675Z,82.41
2023-05-09T02:41:16.092Z,82.14
2023-05-09T02:43:42.999Z,81.33
2023-05-09T02:46:10.384Z,81.75
2023-05-09T02:48:37.394Z,81.67
2023-05-09T02:51:04.331Z,81.22
2023-05-09T02:53:31.084Z,82.09
2023-05-09T02:55:57.406Z,82.71
2023-05-09T02:58:23.813Z,83.57
2023-05-09T03:00:50.855Z,83.32
2023-05-09T03:03:18.018Z,83.21
2023-05-09T03:05:44.702Z,83.20
2023-05-09T03:08:11.049Z,84.05
2023-05-09T03:10:37.398Z,83.43
2023-05-09T03:13:03.999Z,82.74
2023-05-09T03:15:30.564Z,83.06
2023-05-09T03:17:56.898Z,82.88
2023-05-09T03:20:23.283Z,83.07
2023-05-09T03:22:49.641Z,83.40
2023-05-09T03:25:16.723Z,82.50
2023-05-09T03:27:57.317Z,82.93
2023-05-09T03:30:23.836Z,82.55
2023-05-09T03:32:50.239Z,82.84
2023-05-09T03:35:16.868Z,83.08
2023-05-09T03:37:43.388Z,82.64
2023-05-09T03:40:10.133Z,82.81
2023-05-09T03:42:36.474Z,82.60
2023-05-09T03:45:02.805Z,83.02
2023-05-09T03:47:29.141Z,82.51
2023-05-09T03:49:55.621Z,81.81
2023-05-09T03:52:21.979Z,82.64
2023-05-09T03:54:48.382Z,82.92
2023-05-09T03:57:14.699Z,82.51
2023-05-09T03:59:41.038Z,82.88
2023-05-09T04:02:07.401Z,82.79
2023-05-09T04:04:33.860Z,82.39
2023-05-09T04:07:00.207Z,82.55
2023-05-09T04:09:27.285Z,82.93
2023-05-09T04:11:53.624Z,83.39
2023-05-09T04:14:19.973Z,83.40
2023-05-09T04:16:46.360Z,83.44
2023-05-09T04:19:12.713Z,82.73
2023-05-09T04:21:39.053Z,82.72
2023-05-09T04:24:05.861Z,82.12
2023-05-09T04:26:32.287Z,82.89
2023-05-09T04:28:58.659Z,82.91
2023-05-09T04:31:26.366Z,83.77
2023-05-09T04:33:52.862Z,84.26
2023-05-09T04:36:19.318Z,83.64
2023-05-09T04:38:46.397Z,83.29
2023-05-09T04:41:12.725Z,82.58
2023-05-09T04:43:39.099Z,82.98
2023-05-09T04:46:05.655Z,83.20
2023-05-09T04:48:32.030Z,83.35
2023-05-09T04:50:58.510Z,82.48
2023-05-09T04:53:24.828Z,81.78
2023-05-09T04:55:51.864Z,81.64
2023-05-09T04:58:18.247Z,81.30
2023-05-09T05:00:44.641Z,80.75
2023-05-09T05:03:11.103Z,81.07
2023-05-09T05:05:38.001Z,81.17
2023-05-09T05:08:04.773Z,80.98
2023-05-09T05:10:31.230Z,80.55
2023-05-09T05:12:57.649Z,80.92
2023-05-09T05:15:24.053Z,80.59
2023-05-09T05:17:50.452Z,80.57
2023-05-09T05:20:16.945Z,80.55
2023-05-09T05:22:45.775Z,81.21
2023-05-09T05:25:13.191Z,81.10
2023-05-09T05:27:39.896Z,81.70
2023-05-09T05:30:07.580Z,81.69
2023-05-09T05:32:33.930Z,81.26
2023-05-09T05:35:02.456Z,81.08
2023-05-09T05:37:28.918Z,81.07
2023-05-09T05:39:55.384Z,80.86
2023-05-09T05:42:21.731Z,81.38
2023-05-09T05:44:48.094Z,80.76
2023-05-09T05:47:14.447Z,80.39
2023-05-09T05:49:41.150Z,80.22
2023-05-09T05:52:07.529Z,80.33
2023-05-09T05:54:33.889Z,80.21
2023-05-09T05:57:00.372Z,80.29
2023-05-09T05:59:26.796Z,79.54
2023-05-09T06:01:53.258Z,79.69
2023-05-09T06:04:19.785Z,79.02
2023-05-09T06:06:46.720Z,79.30
2023-05-09T06:09:13.153Z,79.64
2023-05-09T06:11:39.549Z,79.49
2023-05-09T06:14:06.130Z,79.78
2023-05-09T06:16:32.789Z,79.86
2023-05-09T06:18:59.233Z,79.86
2023-05-09T06:21:26.209Z,80.00
2023-05-09T06:24:07.921Z,79.50
2023-05-09T06:26:38.698Z,79.31
2023-05-09T06:29:06.406Z,79.30
2023-05-09T06:31:35.710Z,79.07
2023-05-09T06:34:02.152Z,79.31
2023-05-09T06:36:28.485Z,77.96
2023-05-09T06:38:54.835Z,78.32
2023-05-09T06:41:21.749Z,78.28
2023-05-09T06:43:48.606Z,77.26
2023-05-09T06:46:16.353Z,77.73
2023-05-09T06:48:42.789Z,77.53
2023-05-09T06:51:09.261Z,77.01
2023-05-09T06:53:35.639Z,76.71
2023-05-09T06:56:04.856Z,76.56
2023-05-09T06:58:31.334Z,76.80
2023-05-09T07:00:57.942Z,77.33
2023-05-09T07:03:24.345Z,77.09
2023-05-09T07:05:52.332Z,76.78
2023-05-09T07:08:18.749Z,76.28
2023-05-09T07:10:45.142Z,76.02
2023-05-09T07:13:11.508Z,76.47
2023-05-09T07:15:41.826Z,75.76
2023-05-09T07:18:09.437Z,74.99
2023-05-09T07:20:36.098Z,74.10
2023-05-09T07:23:05.881Z,75.12
2023-05-09T07:25:32.274Z,74.34
2023-05-09T07:27:58.661Z,73.66
2023-05-09T07:30:25.176Z,73.32
2023-05-09T07:32:51.962Z,72.96
2023-05-09T07:35:19.133Z,73.76
2023-05-09T07:37:45.792Z,73.15
2023-05-09T07:40:12.698Z,73.18
2023-05-09T07:42:39.440Z,72.42
2023-05-09T07:45:06.438Z,72.69
2023-05-09T07:47:33.363Z,72.49
2023-05-09T07:49:59.751Z,72.97
2023-05-09T07:52:26.265Z,70.83
2023-05-09T07:54:52.654Z,70.23
2023-05-09T07:57:19.091Z,70.20
2023-05-09T07:59:45.511Z,69.79
2023-05-09T08:02:11.888Z,70.08
2023-05-09T08:04:39.052Z,68.72
2023-05-09T08:07:05.664Z,69.09
2023-05-09T08:09:32.289Z,68.04
2023-05-09T08:14:24.942Z,67.21
2023-05-09T08:16:51.439Z,68.01
2023-05-09T08:19:18.833Z,66.64
2023-05-09T08:21:45.527Z,65.87
2023-05-09T08:24:11.931Z,66.67
2023-05-09T08:26:38.330Z,65.26
2023-05-09T08:29:04.728Z,64.46
2023-05-09T08:31:31.157Z,65.22
2023-05-09T08:33:57.542Z,64.99
2023-05-09T08:36:24.063Z,62.92
2023-05-09T08:38:50.508Z,62.78
2023-05-09T08:41:17.215Z,62.28
2023-05-09T08:43:44.206Z,63.49
2023-05-09T08:46:11.932Z,64.11
2023-05-09T08:48:39.620Z,63.37
2023-05-09T08:51:08.111Z,61.59
2023-05-09T08:53:34.682Z,63.50
2023-05-09T08:56:02.644Z,63.91
2023-05-09T08:58:29.480Z,63.35
2023-05-09T09:00:56.646Z,62.78
2023-05-09T09:03:26.173Z,62.58
2023-05-09T09:05:54.458Z,63.53
2023-05-09T09:08:22.864Z,62.89
2023-05-09T09:10:49.688Z,63.42
2023-05-09T09:13:18.272Z,64.50
2023-05-09T09:15:46.930Z,64.40
2023-05-09T09:18:21.887Z,64.69
2023-05-09T09:20:51.205Z,63.66
2023-05-09T09:23:20.522Z,63.84
2023-05-09T09:25:47.542Z,63.02
2023-05-09T09:28:14.015Z,62.32
2023-05-09T09:30:48.214Z,62.92
2023-05-09T09:33:26.194Z,64.01
2023-05-09T09:35:54.545Z,62.88
2023-05-09T09:38:22.471Z,60.81
2023-05-09T09:40:51.903Z,60.96
2023-05-09T09:43:19.342Z,62.22
2023-05-09T09:45:50.938Z,61.32
2023-05-09T09:48:17.414Z,60.50
2023-05-09T09:50:43.739Z,61.30
2023-05-09T09:53:12.530Z,60.29
2023-05-09T09:55:50.081Z,59.38
2023-05-09T09:58:27.328Z,58.99
2023-05-09T10:01:11.240Z,57.57
2023-05-09T10:03:37.749Z,56.88
2023-05-09T10:06:04.592Z,56.26
2023-05-09T10:08:31.210Z,56.26
2023-05-09T10:10:59.758Z,58.83
2023-05-09T10:13:27.156Z,56.43
2023-05-09T10:15:55.323Z,56.40
2023-05-09T10:18:28.475Z,54.98
2023-05-09T10:20:57.958Z,57.34
2023-05-09T10:23:25.296Z,57.45
2023-05-09T10:26:03.080Z,58.72
2023-05-09T10:28:33.140Z,58.05
2023-05-09T10:31:22.422Z,60.14
2023-05-09T10:33:51.040Z,59.26
2023-05-09T10:36:20.309Z,59.43
2023-05-09T10:38:48.585Z,57.91
2023-05-09T10:41:18.733Z,58.23
2023-05-09T10:43:45.802Z,57.63
2023-05-09T10:46:13.100Z,57.34
2023-05-09T10:48:40.090Z,56.99
2023-05-09T10:51:08.018Z,58.76
2023-05-09T10:53:45.536Z,57.97
2023-05-09T10:56:32.641Z,58.24
2023-05-09T10:59:00.013Z,58.26
2023-05-09T11:01:38.990Z,57.41
2023-05-09T11:04:11.353Z,56.38
2023-05-09T11:06:41.972Z,55.87
2023-05-09T11:09:28.024Z,56.57
2023-05-09T11:12:00.534Z,58.08
2023-05-09T11:14:39.466Z,57.74
2023-05-09T11:17:08.381Z,59.52
2023-05-09T11:19:46.724Z,59.83
2023-05-09T11:22:21.650Z,60.79
2023-05-09T11:24:50.059Z,67.79
2023-05-09T11:27:20.583Z,76.35
2023-05-09T11:29:55.803Z,79.52
2023-05-09T11:32:27.739Z,84.31
2023-05-09T11:35:15.818Z,83.75
2023-05-09T11:37:50.205Z,86.56
2023-05-09T11:40:19.140Z,88.25
2023-05-09T11:42:58.472Z,91.16
2023-05-09T11:45:27.444Z,92.11
2023-05-09T11:47:54.254Z,92.05
2023-05-09T11:50:21.666Z,93.11
2023-05-09T11:52:48.895Z,93.78
2023-05-09T11:55:18.414Z,93.79
2023-05-09T11:57:48.887Z,95.29
2023-05-09T12:00:19.819Z,95.68
2023-05-09T12:02:47.091Z,95.57
2023-05-09T12:05:15.679Z,93.93
2023-05-09T12:07:42.908Z,96.61
2023-05-09T12:10:11.377Z,95.35
2023-05-09T12:12:47.338Z,95.24
2023-05-09T12:15:14.490Z,95.74
2023-05-09T12:17:44.951Z,94.67
2023-05-09T12:20:11.668Z,94.39
2023-05-09T12:22:38.213Z,94.18
2023-05-09T12:25:09.506Z,92.43
2023-05-09T12:27:37.510Z,92.38
2023-05-09T12:30:10.044Z,93.38
2023-05-09T12:32:39.415Z,91.47
2023-05-09T12:35:08.559Z,92.40
2023-05-09T12:37:34.971Z,91.37
2023-05-09T12:40:12.807Z,92.84
2023-05-09T12:42:42.918Z,93.96
2023-05-09T12:45:10.183Z,92.07
2023-05-09T12:47:38.997Z,94.19
2023-05-09T12:50:07.367Z,94.97
2023-05-09T12:52:46.913Z,96.11
2023-05-09T12:55:25.202Z,97.18
2023-05-09T12:58:00.568Z,97.31
2023-05-09T13:00:30.616Z,96.71
2023-05-09T13:02:57.146Z,96.46
2023-05-09T13:05:24.256Z,96.22
2023-05-09T13:07:52.523Z,96.95
2023-05-09T13:10:23.556Z,96.94
2023-05-09T13:12:51.253Z,97.87
2023-05-09T13:15:21.674Z,97.37
2023-05-09T13:17:49.491Z,98.17
2023-05-09T13:20:17.091Z,98.15
2023-05-09T13:22:44.739Z,98.06
2023-05-09T13:25:12.019Z,98.60
2023-05-09T13:27:38.612Z,98.22
2023-05-09T13:30:07.744Z,98.79
2023-05-09T13:32:35.070Z,98.47
2023-05-09T13:35:01.472Z,99.30
2023-05-09T13:37:28.222Z,99.30
2023-05-09T13:40:00.892Z,98.62
2023-05-09T13:42:27.907Z,98.81
2023-05-09T13:44:54.322Z,99.82
2023-05-09T13:47:21.019Z,99.24
2023-05-09T13:49:47.426Z,99.11
2023-05-09T13:52:16.041Z,98.69
2023-05-09T13:54:42.597Z,98.75
2023-05-09T13:57:09.036Z,98.47
2023-05-09T13:59:35.492Z,98.08
2023-05-09T14:02:02.124Z,99.18
2023-05-09T14:04:32.582Z,98.04
2023-05-09T14:07:00.059Z,97.89
2023-05-09T14:09:28.331Z,97.27
2023-05-09T14:12:02.676Z,99.12
2023-05-09T14:14:29.055Z,98.52
2023-05-09T14:16:59.309Z,99.15
2023-05-09T14:19:27.095Z,98.96
2023-05-09T14:21:53.613Z,98.63
2023-05-09T14:24:30.040Z,99.07
2023-05-09T14:26:57.450Z,99.13
2023-05-09T14:29:29.569Z,99.48
2023-05-09T14:31:56.161Z,99.15
2023-05-09T14:34:22.869Z,99.00
2023-05-09T14:36:50.292Z,99.73
2023-05-09T14:39:22.109Z,99.54
2023-05-09T14:41:49.957Z,99.66
2023-05-09T14:44:17.267Z,99.58
2023-05-09T14:46:43.867Z,99.32
2023-05-09T14:49:10.348Z,99.58
2023-05-09T14:51:40.286Z,100.00
2023-05-09T14:54:06.804Z,99.94
2023-05-09T14:56:33.369Z,100.00
2023-05-09T14:59:00.069Z,100.00
2023-05-09T15:01:26.613Z,99.95
2023-05-09T15:03:53.123Z,99.83
2023-05-09T15:06:19.518Z,98.65
2023-05-09T15:08:46.141Z,98.91
2023-05-09T15:11:12.616Z,99.85
2023-05-09T15:13:39.093Z,99.22
2023-05-09T15:16:08.688Z,99.46
2023-05-09T15:18:37.436Z,98.94
2023-05-09T15:21:04.195Z,99.64
2023-05-09T15:23:30.835Z,99.50
2023-05-09T15:25:57.537Z,99.10
2023-05-09T15:28:24.228Z,99.28
2023-05-09T15:30:51.049Z,98.57
2023-05-09T15:33:17.776Z,99.64
2023-05-09T15:35:45.122Z,100.00
2023-05-09T15:38:15.464Z,100.00
2023-05-09T15:40:42.214Z,100.00
2023-05-09T15:43:08.723Z,100.00
2023-05-09T15:45:36.905Z,99.59
2023-05-09T15:48:03.978Z,100.00
2023-05-09T15:50:30.322Z,99.30
2023-05-09T15:52:57.054Z,99.33
2023-05-09T15:55:23.476Z,99.93
2023-05-09T15:57:51.379Z,99.73
2023-05-09T16:00:18.291Z,100.00
2023-05-09T16:02:44.925Z,100.00
2023-05-09T16:05:11.400Z,100.00
2023-05-09T16:07:37.855Z,100.00
2023-05-09T16:10:05.184Z,100.00
2023-05-09T16:12:32.803Z,100.00
2023-05-09T16:14:59.456Z,100.00
2023-05-09T16:17:25.981Z,100.00
2023-05-09T16:19:52.407Z,100.00
2023-05-09T16:22:19.194Z,100.00
2023-05-09T16:24:46.356Z,100.00
2023-05-09T16:27:14.324Z,100.00
2023-05-09T16:29:41.412Z,100.00
2023-05-09T16:32:08.672Z,100.00
2023-05-09T16:34:36.554Z,100.00
2023-05-09T16:37:03.772Z,100.00
2023-05-09T16:39:35.535Z,100.00
2023-05-09T16:42:07.599Z,100.00
2023-05-09T16:44:34.088Z,100.00
2023-05-09T16:47:03.795Z,100.00
2023-05-09T16:49:30.269Z,100.00
2023-05-09T16:51:58.831Z,100.00
2023-05-09T16:54:25.409Z,100.00
2023-05-09T16:56:51.785Z,100.00
2023-05-09T16:59:18.604Z,100.00
2023-05-09T17:01:45.125Z,100.00
2023-05-09T17:04:11.667Z,100.00
2023-05-09T17:06:38.243Z,100.00
2023-05-09T17:09:04.705Z,100.00
2023-05-09T17:11:31.150Z,100.00
2023-05-09T17:13:57.510Z,100.00
2023-05-09T17:16:23.878Z,100.00
2023-05-09T17:18:51.911Z,100.00
2023-05-09T17:21:20.110Z,100.00
2023-05-09T17:23:46.561Z,100.00
2023-05-09T17:26:12.939Z,100.00
2023-05-09T17:28:39.376Z,100.00
2023-05-09T17:31:05.894Z,100.00
2023-05-09T17:33:32.361Z,100.00
2023-05-09T17:35:59.958Z,100.00
2023-05-09T17:38:26.364Z,100.00
2023-05-09T17:40:52.704Z,100.00
2023-05-09T17:43:19.204Z,100.00
2023-05-09T17:45:46.233Z,100.00
2023-05-09T17:48:13.427Z,100.00
2023-05-09T17:50:39.849Z,100.00
2023-05-09T17:53:08.903Z,100.00
2023-05-09T17:55:35.669Z,100.00
2023-05-09T17:58:04.433Z,100.00
2023-05-09T18:00:30.942Z,100.00
2023-05-09T18:03:01.494Z,100.00
2023-05-09T18:05:28.027Z,100.00
2023-05-09T18:07:54.431Z,100.00
2023-05-09T18:10:23.407Z,100.00
2023-05-09T18:12:49.902Z,100.00
2023-05-09T18:15:16.306Z,100.00
2023-05-09T18:17:42.894Z,100.00
2023-05-09T18:20:09.837Z,100.00
2023-05-09T18:22:37.314Z,100.00
2023-05-09T18:25:03.968Z,100.00
2023-05-09T18:27:30.418Z,100.00
2023-05-09T18:29:56.804Z,100.00
2023-05-09T18:32:23.240Z,100.00
2023-05-09T18:34:50.274Z,100.00
2023-05-09T18:37:17.042Z,100.00
2023-05-09T18:39:45.022Z,100.00
2023-05-09T18:42:16.175Z,100.00
2023-05-09T18:44:43.072Z,100.00
2023-05-09T18:47:09.547Z,100.00
2023-05-09T18:49:36.222Z,100.00
2023-05-09T18:52:03.387Z,100.00
2023-05-09T18:54:30.296Z,100.00
2023-05-09T18:56:57.034Z,100.00
2023-05-09T18:59:24.554Z,100.00
2023-05-09T19:01:50.954Z,100.00
2023-05-09T19:04:19.990Z,100.00
2023-05-09T19:06:47.226Z,100.00
2023-05-09T19:09:13.665Z,100.00
2023-05-09T19:11:40.277Z,100.00
2023-05-09T19:14:07.129Z,100.00
2023-05-09T19:16:33.687Z,100.00
2023-05-09T19:19:00.865Z,100.00
2023-05-09T19:21:28.249Z,100.00
2023-05-09T19:23:54.879Z,100.00
2023-05-09T19:26:22.080Z,100.00
2023-05-09T19:28:48.555Z,100.00
2023-05-09T19:31:15.973Z,100.00
2023-05-09T19:33:47.501Z,100.00
2023-05-09T19:36:19.336Z,100.00
2023-05-09T19:38:48.024Z,100.00
2023-05-09T19:41:14.437Z,100.00
2023-05-09T19:43:40.915Z,100.00
2023-05-09T19:46:09.886Z,100.00
2023-05-09T19:48:36.377Z,100.00
2023-05-09T19:51:03.016Z,100.00
2023-05-09T19:53:29.413Z,100.00
2023-05-09T19:55:55.812Z,100.00
2023-05-09T19:58:22.314Z,100.00
2023-05-09T20:00:48.733Z,100.00
2023-05-09T20:03:17.442Z,100.00
2023-05-09T20:05:45.078Z,100.00
2023-05-09T20:08:11.591Z,100.00
2023-05-09T20:10:38.095Z,100.00
2023-05-09T20:13:04.712Z,100.00
2023-05-09T20:15:33.773Z,100.00
2023-05-09T20:18:03.476Z,100.00
2023-05-09T20:20:32.153Z,100.00
2023-05-09T20:22:58.630Z,100.00
2023-05-09T20:25:25.188Z,100.00
2023-05-09T20:27:51.761Z,100.00
2023-05-09T20:30:18.151Z,100.00
2023-05-09T20:32:44.621Z,100.00
2023-05-09T20:35:11.172Z,100.00
2023-05-09T20:37:37.663Z,100.00
2023-05-09T20:40:08.459Z,100.00
2023-05-09T20:42:35.089Z,100.00
2023-05-09T20:45:02.085Z,100.00
2023-05-09T20:47:28.711Z,100.00
2023-05-09T20:49:56.239Z,100.00
2023-05-09T20:52:24.569Z,100.00
2023-05-09T20:54:50.887Z,100.00
2023-05-09T20:57:17.246Z,100.00
2023-05-09T20:59:44.204Z,100.00
2023-05-09T21:02:11.138Z,100.00
2023-05-09T21:04:37.686Z,100.00
2023-05-09T21:07:04.047Z,100.00
2023-05-09T21:09:30.436Z,100.00
2023-05-09T21:11:57.053Z,100.00
2023-05-09T21:14:23.386Z,100.00
2023-05-09T21:16:51.530Z,100.00
2023-05-09T21:19:17.923Z,100.00
2023-05-09T21:21:44.324Z,100.00
2023-05-09T21:24:10.736Z,100.00
2023-05-09T21:26:37.297Z,100.00
2023-05-09T21:29:03.708Z,100.00
2023-05-09T21:31:30.207Z,100.00
2023-05-09T21:33:57.677Z,100.00
2023-05-09T21:36:24.073Z,100.00
2023-05-09T21:38:50.806Z,100.00
2023-05-09T21:41:17.275Z,100.00
2023-05-09T21:43:43.620Z,100.00
2023-05-09T21:46:10.190Z,100.00
2023-05-09T21:48:36.709Z,100.00
2023-05-09T21:51:03.669Z,100.00
2023-05-09T21:53:30.166Z,100.00
2023-05-09T21:55:56.596Z,100.00
2023-05-09T21:58:22.982Z,100.00
2023-05-09T22:00:49.465Z,100.00
2023-05-09T22:03:15.933Z,100.00
2023-05-09T22:05:42.376Z,100.00
2023-05-09T22:08:09.215Z,100.00
2023-05-09T22:10:37.678Z,100.00
2023-05-09T22:13:04.165Z,100.00
2023-05-09T22:15:30.618Z,100.00
2023-05-09T22:17:59.823Z,100.00
2023-05-09T22:20:26.328Z,100.00
2023-05-09T22:22:52.686Z,100.00
2023-05-09T22:25:19.450Z,100.00
2023-05-09T22:27:45.781Z,100.00
2023-05-09T22:30:12.497Z,100.00
2023-05-09T22:32:39.366Z,100.00
2023-05-09T22:35:06.193Z,100.00
2023-05-09T22:37:32.607Z,100.00
2023-05-09T22:40:01.361Z,100.00
2023-05-09T22:42:29.251Z,100.00
2023-05-09T22:44:55.791Z,100.00
2023-05-09T22:47:22.237Z,100.00
2023-05-09T22:49:49.758Z,100.00
2023-05-09T22:52:16.206Z,100.00
2023-05-09T22:54:42.679Z,100.00
2023-05-09T22:57:09.548Z,100.00
2023-05-09T22:59:36.897Z,100.00
2023-05-09T23:02:03.836Z,100.00
2023-05-09T23:04:30.297Z,100.00
2023-05-09T23:06:56.730Z,100.00
2023-05-09T23:09:23.265Z,100.00
2023-05-09T23:11:49.762Z,100.00
2023-05-09T23:14:16.133Z,100.00
2023-05-09T23:16:42.700Z,100.00
2023-05-09T23:19:10.304Z,100.00
2023-05-09T23:21:36.763Z,100.00
2023-05-09T23:24:03.605Z,100.00
2023-05-09T23:26:29.964Z,100.00
2023-05-09T23:28:56.571Z,100.00
2023-05-09T23:31:23.067Z,100.00
2023-05-09T23:33:49.598Z,100.00
2023-05-09T23:36:16.060Z,100.00
2023-05-09T23:38:42.455Z,100.00
2023-05-09T23:41:08.837Z,100.00
2023-05-09T23:43:35.187Z,100.00
2023-05-09T23:46:01.794Z,100.00
2023-05-09T23:48:28.172Z,100.00
2023-05-09T23:50:54.535Z,100.00
2023-05-09T23:53:21.011Z,100.00
2023-05-09T23:55:47.368Z,100.00
2023-05-09T23:58:14.155Z,100.00
